Terminal Aerodrome Forecast
Issued by NWS Twin Cities, MN

Home | Current Version | Previous Version | Text Only | Print | Product List | Glossary Off
Versions: 1 2 3 4 5 6 7 8 9 10 11 12 13 14 15 16 17 18 19

000
FTUS43 KMPX 181126
TAFSTC
TAF
KSTC 181126Z 1812/1912 34006KT P6SM BKN110
     FM181500 33012G18KT P6SM SCT250
     FM181800 33018G26KT P6SM SCT070
     FM190200 31012G21KT P6SM SKC
     FM190600 29008KT P6SM SKC=

USA.gov is the U.S. government's official web portal to all federal, state and local government web resources and services.